Nearby METAR Reports

 

KLOM - Philly Wings F, Pennsylvania, USA
Distance from station: SW 6mi, 10km
Updated: Tue, 02-Sep-2014 2:35pm EDT
Partly cloudy
Partly cloudy
 Wind from W
Wind: W 6 mph , 9 km/h
Temperature: 90°F , 32°C
Heat Index: 96°F , 36°C
Dew Point: 70°F , 21°C
Humidity: 52%
Barometer: 29.89 inHg , 1012.2 hPa
Clouds: Partly cloudy
Visibility: 10 miles , 16 km
Cloud details: Partly cloudy 4700 ft
Partly cloudy 6000 ft
2014/09/02 18:35 KLOM 021835Z AUTO 26005KT 10SM SCT047 SCT060 32/21 A2989 RMK AO1
KDYL - Doylestown, Pennsylvania, USA
Distance from station: NNE 10mi, 17km
Updated: Tue, 02-Sep-2014 1:54pm EDT
Mostly cloudy
Mostly cloudy
 Wind from SW
Wind: SW 7 mph , 11 km/h
Temperature: 88°F , 31°C
Heat Index: 92°F , 33°C
Dew Point: 68°F , 20°C
Humidity: 52%
Barometer: 29.90 inHg , 1012.5 hPa
Clouds: Mostly cloudy
Visibility: 10 miles , 16 km
Cloud details: Partly cloudy 4500 ft
Mostly cloudy 6000 ft
Mostly cloudy 10000 ft
2014/09/02 17:54 KDYL 021754Z AUTO 23006KT 10SM SCT045 BKN060 BKN100 31/20 A2990 RMK AO2 SLP119 T03060200 10322 20228 58018
KPNE - Philadelphia/Ne, Pennsylvania, USA
Distance from station: SE 11mi, 18km
Updated: Tue, 02-Sep-2014 1:54pm EDT
Few Clouds
Few Clouds
 Wind from WSW
Wind: WSW 9 mph , 15 km/h
Temperature: 90°F , 32°C
Heat Index: 94°F , 34°C
Dew Point: 68°F , 20°C
Humidity: 49%
Barometer: 29.91 inHg , 1012.9 hPa
Clouds: Few Clouds
Visibility: 10 miles , 16 km
Cloud details: Few Clouds 4700 ft
2014/09/02 17:54 KPNE 021754Z 25008KT 10SM FEW047 32/20 A2991 RMK AO2 SLP126 T03220200 10333 20261 58018
 
KPTW - Pottstown, Pennsylvania, USA
Distance from station: W 20mi, 32km
Updated: Tue, 02-Sep-2014 1:54pm EDT
Partly cloudy
Partly cloudy
 Wind from WSW
Wind: WSW 7 mph , 11 km/h, Gust: 17 mph , 28 km/h
Temperature: 88°F , 31°C
Heat Index: 93°F , 34°C
Dew Point: 70°F , 21°C
Humidity: 55%
Barometer: 29.93 inHg , 1013.5 hPa
Clouds: Partly cloudy
Visibility: 10 miles , 16 km
Cloud details: Few Clouds 4000 ft
Partly cloudy 5500 ft
2014/09/02 17:54 KPTW 021754Z AUTO 24006G15KT 10SM FEW040 SCT055 31/21 A2993 RMK AO2 SLP130 T03060206 10306 20228 58017
KTTN - Trenton, New Jersey, USA
Distance from station: ENE 20mi, 32km
Updated: Tue, 02-Sep-2014 1:53pm EDT
Clear
Clear
 Wind from W
Wind: W 9 mph , 15 km/h
Temperature: 90°F , 32°C
Heat Index: 94°F , 34°C
Dew Point: 68°F , 20°C
Humidity: 49%
Barometer: 29.89 inHg , 1012.2 hPa
Clouds: Clear
Visibility: 10 miles , 16 km
2014/09/02 17:53 KTTN 021753Z 27008KT 10SM CLR 32/20 A2989 RMK AO2 SLP114 T03170200 10317 20233 58017
KUKT - Quakertown Arp, Pennsylvania, USA
Distance from station: NNW 20mi, 32km
Updated: Tue, 02-Sep-2014 2:35pm EDT
Partly cloudy
Partly cloudy
 
Temperature: 88°F , 31°C
Heat Index: 92°F , 33°C
Dew Point: 68°F , 20°C
Humidity: 52%
Barometer: 29.92 inHg , 1013.2 hPa
Clouds: Partly cloudy
Visibility: 10 miles , 16 km
Cloud details: Partly cloudy 4300 ft
Partly cloudy 6500 ft
2014/09/02 18:35 KUKT 021835Z AUTO 10SM SCT043 SCT065 31/20 A2992 RMK AO1
 
KPHL - Philadelphia, Pennsylvania, USA
Distance from station: S 22mi, 36km
Updated: Tue, 02-Sep-2014 1:54pm EDT
Partly cloudy
Partly cloudy
 Wind from SW
Wind: SW 13 mph , 20 km/h
Temperature: 91°F , 33°C
Heat Index: 96°F , 36°C
Dew Point: 70°F , 21°C
Humidity: 49%
Barometer: 29.90 inHg , 1012.5 hPa
Clouds: Partly cloudy
Visibility: 10 miles , 16 km
Cloud details: Partly cloudy 5000 ft
Partly cloudy 9500 ft
2014/09/02 17:54 KPHL 021754Z 23011KT 10SM SCT050 SCT095 33/21 A2990 RMK AO2 SLP124 T03280206 10333 20256 58020
KVAY - Mount Holly, New Jersey, USA
Distance from station: SE 25mi, 41km
Updated: Tue, 02-Sep-2014 1:54pm EDT
Partly cloudy
Partly cloudy
 Wind from SW
Wind: SW 7 mph , 11 km/h
Temperature: 90°F , 32°C
Heat Index: 96°F , 36°C
Dew Point: 70°F , 21°C
Humidity: 52%
Barometer: 29.90 inHg , 1012.5 hPa
Clouds: Partly cloudy
Visibility: 10 miles , 16 km
Cloud details: Few Clouds 5000 ft
Partly cloudy 6500 ft
2014/09/02 17:54 KVAY 021754Z AUTO 23006KT 10SM FEW050 SCT065 32/21 A2990 RMK AO2 SLP123 T03170211 10322 20244 58018
KXLL - Allentown Queen, Pennsylvania, USA
Distance from station: NNW 31mi, 49km
Updated: Tue, 02-Sep-2014 2:35pm EDT
Partly cloudy
Partly cloudy
 Wind from SW
Wind: SW 12 mph , 19 km/h, Gust: 16 mph , 26 km/h
Temperature: 88°F , 31°C
Heat Index: 91°F , 33°C
Dew Point: 66°F , 19°C
Humidity: 49%
Barometer: 29.90 inHg , 1012.5 hPa
Clouds: Partly cloudy
Visibility: 10 miles , 16 km
Cloud details: Partly cloudy 4600 ft
Partly cloudy 7000 ft
2014/09/02 18:35 KXLL 021835Z AUTO 22010G14KT 10SM SCT046 SCT070 31/19 A2990 RMK AO2
 
KWRI - Wrightst/Mcguire, New Jersey, USA
Distance from station: ESE 34mi, 54km
Updated: Tue, 02-Sep-2014 2:19pm EDT
Mostly cloudy
Mostly cloudy
 Wind from SW
Wind: SW 13 mph , 20 km/h
Temperature: 90°F , 32°C
Heat Index: 97°F , 36°C
Dew Point: 72°F , 22°C
Humidity: 55%
Barometer: 29.87 inHg , 1011.5 hPa
Clouds: Mostly cloudy
Visibility: 10 miles , 16 km
Cloud details: Few Clouds 4100 ft
Partly cloudy 5500 ft
Mostly cloudy 7500 ft
2014/09/02 18:19 KWRI 021819Z AUTO 22011KT 10SM FEW041 SCT055 BKN075 32/22 A2987 RMK AO2 WSHFT 16
KABE - Allentown, Pennsylvania, USA
Distance from station: NNW 35mi, 56km
Updated: Tue, 02-Sep-2014 1:51pm EDT
Few Clouds
Few Clouds
 Wind from SW
Wind: SW 10 mph , 17 km/h, Gust: 21 mph , 33 km/h
Temperature: 90°F , 32°C
Heat Index: 94°F , 34°C
Dew Point: 68°F , 20°C
Humidity: 49%
Barometer: 29.90 inHg , 1012.5 hPa
Clouds: Few Clouds
Visibility: 10 miles , 16 km
Cloud details: Few Clouds 4200 ft
2014/09/02 17:51 KABE 021751Z 22009G18KT 10SM FEW042 32/20 A2990 RMK AO2 SLP121 T03220200 10322 20228 58020
KMQS - Coatesville, Pennsylvania, USA
Distance from station: WSW 39mi, 63km
Updated: Tue, 02-Sep-2014 2:35pm EDT
Few Clouds
Few Clouds
 Wind from WSW
Wind: WSW 3 mph , 6 km/h
Temperature: 86°F , 30°C
Heat Index: 92°F , 33°C
Dew Point: 72°F , 22°C
Humidity: 62%
Barometer: 29.94 inHg , 1013.9 hPa
Clouds: Few Clouds
Visibility: 10 miles , 16 km
Cloud details: Few Clouds 4200 ft
2014/09/02 18:35 KMQS 021835Z AUTO 24003KT 10SM FEW042 30/22 A2994 RMK AO2
 
KSMQ - Somerville, New Jersey, USA
Distance from station: NE 40mi, 64km
Updated: Tue, 02-Sep-2014 1:53pm EDT
Few Clouds
Few Clouds
 Wind from varies
Wind: varies 3 mph , 6 km/h
Temperature: 90°F , 32°C
Heat Index: 96°F , 36°C
Dew Point: 70°F , 21°C
Humidity: 52%
Barometer: 29.87 inHg , 1011.5 hPa
Clouds: Few Clouds
Visibility: 10 miles , 16 km
Cloud details: Few Clouds 4500 ft
2014/09/02 17:53 KSMQ 021753Z AUTO VRB03KT 10SM FEW045 32/21 A2987 RMK AO2 SLP113 T03220211 10322 20217 58017 PWINO $
KILG - Wilmington, Delaware, USA
Distance from station: SSW 42mi, 68km
Updated: Tue, 02-Sep-2014 1:51pm EDT
Mostly cloudy
Mostly cloudy
 Wind from SW
Wind: SW 10 mph , 17 km/h
Temperature: 90°F , 32°C
Heat Index: 97°F , 36°C
Dew Point: 72°F , 22°C
Humidity: 55%
Barometer: 29.92 inHg , 1013.2 hPa
Clouds: Mostly cloudy
Visibility: 10 miles , 16 km
Cloud details: Mostly cloudy 4300 ft
Mostly cloudy 5000 ft
2014/09/02 17:51 KILG 021751Z 22009KT 10SM BKN043 BKN050 32/22 A2992 RMK AO2 SLP131 T03220222 10322 20244 58016 $
KRDG - Reading, Pennsylvania, USA
Distance from station: WNW 43mi, 70km
Updated: Tue, 02-Sep-2014 1:54pm EDT
Mostly cloudy
Mostly cloudy
 Wind from SW
Wind: SW 13 mph , 20 km/h
Temperature: 90°F , 32°C
Heat Index: 94°F , 34°C
Dew Point: 68°F , 20°C
Humidity: 49%
Barometer: 29.90 inHg , 1012.5 hPa
Clouds: Mostly cloudy
Visibility: 10 miles , 16 km
Cloud details: Mostly cloudy 4200 ft
2014/09/02 17:54 KRDG 021754Z 23011KT 10SM BKN042 32/20 A2990 RMK AO2 SLP127 T03220200 10322 20233 58017
 
KNEL - Lakehurst Nas, New Jersey, USA
Distance from station: ESE 46mi, 74km
Updated: Thu, 17-Jul-2014 3:00pm EDT
NOT Current
Mostly cloudy
Mostly cloudy
 Wind from WNW
Wind: WNW 6 mph , 9 km/h
Temperature: 81°F , 27°C
Heat Index: 81°F , 27°C
Dew Point: 55°F , 13°C
Humidity: 42%
Barometer: 29.99 inHg , 1015.6 hPa
Clouds: Mostly cloudy
Cloud details: Partly cloudy 5500 ft
Partly cloudy 8000 ft
Mostly cloudy 10000 ft
2014/07/17 19:00 KNEL 171900Z AUTO 30005KT SCT055 SCT080 BKN100 27/13 A2999 RMK AO2 SLP153 T02720128 $
KMJX - Toms River, New Jersey, USA
Distance from station: ESE 50mi, 80km
Updated: Tue, 02-Sep-2014 2:35pm EDT
Partly cloudy
Partly cloudy
 Wind from WSW
Wind: WSW 9 mph , 15 km/h
Temperature: 91°F , 33°C
Heat Index: 98°F , 37°C
Dew Point: 72°F , 22°C
Humidity: 52%
Barometer: 29.89 inHg , 1012.2 hPa
Clouds: Partly cloudy
Visibility: 10 miles , 16 km
Cloud details: Few Clouds 4200 ft
Partly cloudy 5000 ft
2014/09/02 18:35 KMJX 021835Z AUTO 24008KT 10SM FEW042 SCT050 33/22 A2989 RMK AO1